Terminal Aerodrome Forecast
Issued by NWS

Home | Current Version | Previous Version | Text Only | Print | Product List | Glossary On
Versions: 1 2 3 4 5 6 7 8 9 10 11 12 13 14 15 16 17
000
FTUS43 KJKL 220538
TAFSME
TAF
KSME 220538Z 2206/2306 00000KT P6SM SCT250
     FM221200 00000KT P6SM BKN080
     FM221400 18006KT 5SM -SHRA BR VCTS SCT020 BKN040CB OVC060CB
     FM222000 16006KT 3SM SHRA BR VCTS BKN015CB OVC025
     FM222300 15006KT 5SM -SHRA BR VCTS OVC015CB
     FM230000 16006KT P6SM OVC015=

USA.gov is the U.S. government's official web portal to all federal, state and local government web resources and services.